sensor_id;sensor_type;location;lat;lon;timestamp;P1;durP1;ratioP1;P2;durP2;ratioP2
22284;SDS011;11311;52.192;20.900;2024-01-30T00:01:32;65.13;;;38.25;;
22284;SDS011;11311;52.192;20.900;2024-01-30T00:04:01;50.10;;;29.27;;
22284;SDS011;11311;52.192;20.900;2024-01-30T00:06:30;71.32;;;39.25;;
22284;SDS011;11311;52.192;20.900;2024-01-30T00:09:00;71.78;;;38.78;;
22284;SDS011;11311;52.192;20.900;2024-01-30T00:11:29;69.10;;;39.20;;
22284;SDS011;11311;52.192;20.900;2024-01-30T00:14:00;65.45;;;36.70;;
22284;SDS011;11311;52.192;20.900;2024-01-30T00:16:30;63.78;;;33.10;;
22284;SDS011;11311;52.192;20.900;2024-01-30T00:18:59;69.63;;;37.90;;
22284;SDS011;11311;52.192;20.900;2024-01-30T00:21:29;66.82;;;37.42;;
22284;SDS011;11311;52.192;20.900;2024-01-30T00:23:58;61.00;;;33.78;;
22284;SDS011;11311;52.192;20.900;2024-01-30T00:26:28;63.40;;;39.08;;
22284;SDS011;11311;52.192;20.900;2024-01-30T00:28:57;64.95;;;36.35;;
22284;SDS011;11311;52.192;20.900;2024-01-30T00:31:27;64.45;;;38.17;;
22284;SDS011;11311;52.192;20.900;2024-01-30T00:33:56;61.03;;;31.92;;
22284;SDS011;11311;52.192;20.900;2024-01-30T00:36:25;63.30;;;38.15;;
22284;SDS011;11311;52.192;20.900;2024-01-30T00:38:57;63.78;;;36.97;;
22284;SDS011;11311;52.192;20.900;2024-01-30T00:41:26;62.42;;;35.40;;
22284;SDS011;11311;52.192;20.900;2024-01-30T00:43:55;62.45;;;36.75;;
22284;SDS011;11311;52.192;20.900;2024-01-30T00:46:23;58.00;;;32.05;;
22284;SDS011;11311;52.192;20.900;2024-01-30T00:48:54;65.88;;;36.17;;
22284;SDS011;11311;52.192;20.900;2024-01-30T00:51:23;64.57;;;38.42;;
22284;SDS011;11311;52.192;20.900;2024-01-30T00:53:52;57.67;;;33.65;;
22284;SDS011;11311;52.192;20.900;2024-01-30T00:56:21;64.50;;;35.90;;
22284;SDS011;11311;52.192;20.900;2024-01-30T00:58:51;68.70;;;36.63;;
22284;SDS011;11311;52.192;20.900;2024-01-30T01:01:20;54.08;;;33.42;;
22284;SDS011;11311;52.192;20.900;2024-01-30T01:03:49;55.63;;;34.05;;
22284;SDS011;11311;52.192;20.900;2024-01-30T01:06:20;46.40;;;29.03;;
22284;SDS011;11311;52.192;20.900;2024-01-30T01:08:49;56.22;;;33.17;;
22284;SDS011;11311;52.192;20.900;2024-01-30T01:11:18;56.80;;;33.47;;
22284;SDS011;11311;52.192;20.900;2024-01-30T01:13:46;61.25;;;34.75;;
22284;SDS011;11311;52.192;20.900;2024-01-30T01:16:16;47.47;;;28.60;;
22284;SDS011;11311;52.192;20.900;2024-01-30T01:18:45;59.70;;;34.22;;
22284;SDS011;11311;52.192;20.900;2024-01-30T01:21:14;61.58;;;36.22;;
22284;SDS011;11311;52.192;20.900;2024-01-30T01:23:45;56.03;;;35.28;;
22284;SDS011;11311;52.192;20.900;2024-01-30T01:26:14;57.05;;;35.15;;
22284;SDS011;11311;52.192;20.900;2024-01-30T01:28:42;54.67;;;35.35;;
22284;SDS011;11311;52.192;20.900;2024-01-30T01:31:11;50.78;;;26.05;;
22284;SDS011;11311;52.192;20.900;2024-01-30T01:33:40;44.85;;;28.02;;
22284;SDS011;11311;52.192;20.900;2024-01-30T01:36:10;53.80;;;33.40;;
22284;SDS011;11311;52.192;20.900;2024-01-30T01:38:39;57.40;;;35.58;;
22284;SDS011;11311;52.192;20.900;2024-01-30T01:41:09;58.75;;;35.35;;
22284;SDS011;11311;52.192;20.900;2024-01-30T01:46:07;55.50;;;32.50;;
22284;SDS011;11311;52.192;20.900;2024-01-30T01:48:37;62.33;;;34.10;;
22284;SDS011;11311;52.192;20.900;2024-01-30T01:51:07;60.63;;;36.25;;
22284;SDS011;11311;52.192;20.900;2024-01-30T01:53:37;64.57;;;35.70;;
22284;SDS011;11311;52.192;20.900;2024-01-30T01:56:06;67.65;;;36.53;;
22284;SDS011;11311;52.192;20.900;2024-01-30T01:58:36;59.78;;;36.03;;
22284;SDS011;11311;52.192;20.900;2024-01-30T02:01:06;70.25;;;38.92;;
22284;SDS011;11311;52.192;20.900;2024-01-30T02:03:36;65.82;;;33.42;;
22284;SDS011;11311;52.192;20.900;2024-01-30T02:06:06;63.20;;;34.20;;
22284;SDS011;11311;52.192;20.900;2024-01-30T02:08:36;56.63;;;32.28;;
22284;SDS011;11311;52.192;20.900;2024-01-30T02:11:06;57.75;;;33.67;;
22284;SDS011;11311;52.192;20.900;2024-01-30T02:13:34;59.30;;;34.53;;
22284;SDS011;11311;52.192;20.900;2024-01-30T02:16:05;56.78;;;33.83;;
22284;SDS011;11311;52.192;20.900;2024-01-30T02:18:35;62.40;;;36.13;;
22284;SDS011;11311;52.192;20.900;2024-01-30T02:21:10;57.42;;;34.45;;
22284;SDS011;11311;52.192;20.900;2024-01-30T02:23:39;53.75;;;31.77;;
22284;SDS011;11311;52.192;20.900;2024-01-30T02:28:38;60.28;;;29.08;;
22284;SDS011;11311;52.192;20.900;2024-01-30T02:31:07;57.03;;;35.55;;
22284;SDS011;11311;52.192;20.900;2024-01-30T02:33:36;58.33;;;35.22;;
22284;SDS011;11311;52.192;20.900;2024-01-30T02:36:06;41.30;;;25.48;;
22284;SDS011;11311;52.192;20.900;2024-01-30T02:38:37;57.95;;;34.22;;
22284;SDS011;11311;52.192;20.900;2024-01-30T02:41:06;59.60;;;33.38;;
22284;SDS011;11311;52.192;20.900;2024-01-30T02:43:34;60.42;;;35.47;;
22284;SDS011;11311;52.192;20.900;2024-01-30T02:46:03;58.15;;;34.60;;
22284;SDS011;11311;52.192;20.900;2024-01-30T02:48:33;57.03;;;33.80;;
22284;SDS011;11311;52.192;20.900;2024-01-30T02:51:02;57.05;;;33.97;;
22284;SDS011;11311;52.192;20.900;2024-01-30T02:53:31;56.17;;;35.63;;
22284;SDS011;11311;52.192;20.900;2024-01-30T02:56:01;64.17;;;35.63;;
22284;SDS011;11311;52.192;20.900;2024-01-30T03:00:59;55.05;;;33.20;;
22284;SDS011;11311;52.192;20.900;2024-01-30T03:03:28;50.43;;;30.13;;
22284;SDS011;11311;52.192;20.900;2024-01-30T03:05:57;48.83;;;29.95;;
22284;SDS011;11311;52.192;20.900;2024-01-30T03:08:26;48.30;;;28.33;;
22284;SDS011;11311;52.192;20.900;2024-01-30T03:10:55;52.28;;;30.80;;
22284;SDS011;11311;52.192;20.900;2024-01-30T03:13:25;49.65;;;30.98;;
22284;SDS011;11311;52.192;20.900;2024-01-30T03:15:55;48.88;;;28.50;;
22284;SDS011;11311;52.192;20.900;2024-01-30T03:18:24;43.70;;;24.67;;
22284;SDS011;11311;52.192;20.900;2024-01-30T03:20:53;58.78;;;29.30;;
22284;SDS011;11311;52.192;20.900;2024-01-30T03:23:22;50.50;;;27.75;;
22284;SDS011;11311;52.192;20.900;2024-01-30T03:25:51;48.55;;;28.38;;
22284;SDS011;11311;52.192;20.900;2024-01-30T03:28:20;50.45;;;27.73;;
22284;SDS011;11311;52.192;20.900;2024-01-30T03:30:50;48.35;;;25.75;;
22284;SDS011;11311;52.192;20.900;2024-01-30T03:33:19;55.22;;;30.83;;
22284;SDS011;11311;52.192;20.900;2024-01-30T03:35:48;45.17;;;26.80;;
22284;SDS011;11311;52.192;20.900;2024-01-30T03:38:17;45.83;;;26.88;;
22284;SDS011;11311;52.192;20.900;2024-01-30T03:40:46;53.80;;;30.40;;
22284;SDS011;11311;52.192;20.900;2024-01-30T03:43:15;47.55;;;28.38;;
22284;SDS011;11311;52.192;20.900;2024-01-30T03:45:44;51.88;;;31.08;;
22284;SDS011;11311;52.192;20.900;2024-01-30T03:48:14;49.25;;;29.58;;
22284;SDS011;11311;52.192;20.900;2024-01-30T03:50:43;49.67;;;30.45;;
22284;SDS011;11311;52.192;20.900;2024-01-30T03:53:12;43.40;;;26.10;;
22284;SDS011;11311;52.192;20.900;2024-01-30T03:55:41;40.28;;;23.92;;
22284;SDS011;11311;52.192;20.900;2024-01-30T03:58:10;62.43;;;32.73;;
22284;SDS011;11311;52.192;20.900;2024-01-30T04:00:40;34.63;;;20.13;;
22284;SDS011;11311;52.192;20.900;2024-01-30T04:03:09;43.33;;;22.00;;
22284;SDS011;11311;52.192;20.900;2024-01-30T04:05:39;47.47;;;28.03;;
22284;SDS011;11311;52.192;20.900;2024-01-30T04:08:09;43.78;;;25.95;;
22284;SDS011;11311;52.192;20.900;2024-01-30T04:10:37;48.47;;;29.70;;
22284;SDS011;11311;52.192;20.900;2024-01-30T04:13:07;44.33;;;26.33;;
22284;SDS011;11311;52.192;20.900;2024-01-30T04:15:38;44.03;;;25.80;;
22284;SDS011;11311;52.192;20.900;2024-01-30T04:18:08;49.00;;;28.25;;
22284;SDS011;11311;52.192;20.900;2024-01-30T04:20:37;49.70;;;27.85;;
22284;SDS011;11311;52.192;20.900;2024-01-30T04:23:07;44.88;;;24.52;;
22284;SDS011;11311;52.192;20.900;2024-01-30T04:25:38;53.50;;;28.02;;
22284;SDS011;11311;52.192;20.900;2024-01-30T04:28:07;45.80;;;27.67;;
22284;SDS011;11311;52.192;20.900;2024-01-30T04:30:38;56.53;;;29.67;;
22284;SDS011;11311;52.192;20.900;2024-01-30T04:33:07;37.53;;;20.87;;
22284;SDS011;11311;52.192;20.900;2024-01-30T04:35:36;51.30;;;30.75;;
22284;SDS011;11311;52.192;20.900;2024-01-30T04:38:05;42.05;;;22.92;;
22284;SDS011;11311;52.192;20.900;2024-01-30T04:40:35;45.85;;;27.00;;
22284;SDS011;11311;52.192;20.900;2024-01-30T04:43:04;43.92;;;26.95;;
22284;SDS011;11311;52.192;20.900;2024-01-30T04:45:34;49.07;;;26.93;;
22284;SDS011;11311;52.192;20.900;2024-01-30T04:48:03;49.17;;;29.10;;
22284;SDS011;11311;52.192;20.900;2024-01-30T04:50:32;45.28;;;24.73;;
22284;SDS011;11311;52.192;20.900;2024-01-30T04:53:01;46.92;;;26.92;;
22284;SDS011;11311;52.192;20.900;2024-01-30T04:55:30;42.65;;;24.58;;
22284;SDS011;11311;52.192;20.900;2024-01-30T04:58:00;49.90;;;28.98;;
22284;SDS011;11311;52.192;20.900;2024-01-30T05:00:30;55.72;;;30.45;;
22284;SDS011;11311;52.192;20.900;2024-01-30T05:02:59;58.47;;;30.70;;
22284;SDS011;11311;52.192;20.900;2024-01-30T05:05:31;53.60;;;29.38;;
22284;SDS011;11311;52.192;20.900;2024-01-30T05:08:01;44.50;;;25.05;;
22284;SDS011;11311;52.192;20.900;2024-01-30T05:10:29;50.13;;;26.30;;
22284;SDS011;11311;52.192;20.900;2024-01-30T05:12:58;47.88;;;27.60;;
22284;SDS011;11311;52.192;20.900;2024-01-30T05:15:29;47.63;;;28.58;;
22284;SDS011;11311;52.192;20.900;2024-01-30T05:17:58;52.77;;;29.33;;
22284;SDS011;11311;52.192;20.900;2024-01-30T05:20:28;49.25;;;27.20;;
22284;SDS011;11311;52.192;20.900;2024-01-30T05:22:57;46.47;;;29.50;;
22284;SDS011;11311;52.192;20.900;2024-01-30T05:25:26;50.83;;;28.70;;
22284;SDS011;11311;52.192;20.900;2024-01-30T05:27:56;48.72;;;28.00;;
22284;SDS011;11311;52.192;20.900;2024-01-30T05:30:26;45.63;;;27.50;;
22284;SDS011;11311;52.192;20.900;2024-01-30T05:32:55;50.03;;;30.38;;
22284;SDS011;11311;52.192;20.900;2024-01-30T05:35:25;46.67;;;26.95;;
22284;SDS011;11311;52.192;20.900;2024-01-30T05:37:53;53.40;;;30.65;;
22284;SDS011;11311;52.192;20.900;2024-01-30T05:40:22;50.40;;;29.08;;
22284;SDS011;11311;52.192;20.900;2024-01-30T05:42:51;37.77;;;23.93;;
22284;SDS011;11311;52.192;20.900;2024-01-30T05:45:20;48.72;;;26.50;;
22284;SDS011;11311;52.192;20.900;2024-01-30T05:50:21;53.72;;;28.77;;
22284;SDS011;11311;52.192;20.900;2024-01-30T05:52:50;50.72;;;26.58;;
22284;SDS011;11311;52.192;20.900;2024-01-30T05:55:19;53.63;;;28.73;;
22284;SDS011;11311;52.192;20.900;2024-01-30T05:57:48;49.85;;;27.05;;
22284;SDS011;11311;52.192;20.900;2024-01-30T06:00:18;51.60;;;26.33;;
22284;SDS011;11311;52.192;20.900;2024-01-30T06:02:47;40.42;;;23.15;;
22284;SDS011;11311;52.192;20.900;2024-01-30T06:05:18;49.85;;;25.92;;
22284;SDS011;11311;52.192;20.900;2024-01-30T06:10:15;57.08;;;31.60;;
22284;SDS011;11311;52.192;20.900;2024-01-30T06:12:45;56.33;;;29.47;;
22284;SDS011;11311;52.192;20.900;2024-01-30T06:15:15;60.00;;;30.40;;
22284;SDS011;11311;52.192;20.900;2024-01-30T06:17:45;38.70;;;23.25;;
22284;SDS011;11311;52.192;20.900;2024-01-30T06:20:14;56.53;;;34.42;;
22284;SDS011;11311;52.192;20.900;2024-01-30T06:22:44;50.60;;;26.67;;
22284;SDS011;11311;52.192;20.900;2024-01-30T06:25:13;52.90;;;29.88;;
22284;SDS011;11311;52.192;20.900;2024-01-30T06:27:45;49.10;;;28.95;;
22284;SDS011;11311;52.192;20.900;2024-01-30T06:30:15;53.22;;;31.00;;
22284;SDS011;11311;52.192;20.900;2024-01-30T06:32:44;51.80;;;28.08;;
22284;SDS011;11311;52.192;20.900;2024-01-30T06:35:13;47.40;;;27.98;;
22284;SDS011;11311;52.192;20.900;2024-01-30T06:37:43;50.08;;;25.52;;
22284;SDS011;11311;52.192;20.900;2024-01-30T06:40:12;53.90;;;29.05;;
22284;SDS011;11311;52.192;20.900;2024-01-30T06:42:42;48.70;;;24.92;;
22284;SDS011;11311;52.192;20.900;2024-01-30T06:45:11;42.30;;;21.80;;
22284;SDS011;11311;52.192;20.900;2024-01-30T06:47:40;51.95;;;29.48;;
22284;SDS011;11311;52.192;20.900;2024-01-30T06:50:09;48.13;;;28.90;;
22284;SDS011;11311;52.192;20.900;2024-01-30T06:52:38;49.78;;;29.27;;
22284;SDS011;11311;52.192;20.900;2024-01-30T06:55:09;57.33;;;28.63;;
22284;SDS011;11311;52.192;20.900;2024-01-30T06:57:38;53.90;;;30.80;;
22284;SDS011;11311;52.192;20.900;2024-01-30T07:00:07;49.08;;;30.63;;
22284;SDS011;11311;52.192;20.900;2024-01-30T07:02:37;47.83;;;28.52;;
22284;SDS011;11311;52.192;20.900;2024-01-30T07:05:06;49.15;;;26.98;;
22284;SDS011;11311;52.192;20.900;2024-01-30T07:07:36;51.20;;;29.13;;
22284;SDS011;11311;52.192;20.900;2024-01-30T07:10:06;48.42;;;31.60;;
22284;SDS011;11311;52.192;20.900;2024-01-30T07:12:38;52.63;;;30.70;;
22284;SDS011;11311;52.192;20.900;2024-01-30T07:15:07;54.25;;;29.15;;
22284;SDS011;11311;52.192;20.900;2024-01-30T07:17:37;55.00;;;31.48;;
22284;SDS011;11311;52.192;20.900;2024-01-30T07:20:07;47.67;;;29.95;;
22284;SDS011;11311;52.192;20.900;2024-01-30T07:22:40;49.85;;;28.98;;
22284;SDS011;11311;52.192;20.900;2024-01-30T07:25:09;47.03;;;28.55;;
22284;SDS011;11311;52.192;20.900;2024-01-30T07:27:40;46.85;;;32.63;;
22284;SDS011;11311;52.192;20.900;2024-01-30T07:30:09;42.85;;;25.38;;
22284;SDS011;11311;52.192;20.900;2024-01-30T07:32:39;40.77;;;27.17;;
22284;SDS011;11311;52.192;20.900;2024-01-30T07:35:08;46.97;;;27.23;;
22284;SDS011;11311;52.192;20.900;2024-01-30T07:40:07;40.92;;;25.73;;
22284;SDS011;11311;52.192;20.900;2024-01-30T07:42:37;50.25;;;27.83;;
22284;SDS011;11311;52.192;20.900;2024-01-30T07:45:08;41.38;;;27.30;;
22284;SDS011;11311;52.192;20.900;2024-01-30T07:47:38;40.83;;;26.63;;
22284;SDS011;11311;52.192;20.900;2024-01-30T07:50:07;43.85;;;27.75;;
22284;SDS011;11311;52.192;20.900;2024-01-30T07:52:36;40.77;;;25.67;;
22284;SDS011;11311;52.192;20.900;2024-01-30T07:55:06;46.50;;;27.70;;
22284;SDS011;11311;52.192;20.900;2024-01-30T07:57:38;43.75;;;27.92;;
22284;SDS011;11311;52.192;20.900;2024-01-30T08:00:09;38.45;;;27.05;;
22284;SDS011;11311;52.192;20.900;2024-01-30T08:02:38;40.05;;;26.52;;
22284;SDS011;11311;52.192;20.900;2024-01-30T08:05:07;39.80;;;23.88;;
22284;SDS011;11311;52.192;20.900;2024-01-30T08:07:38;41.50;;;22.73;;
22284;SDS011;11311;52.192;20.900;2024-01-30T08:10:07;37.80;;;25.45;;
22284;SDS011;11311;52.192;20.900;2024-01-30T08:12:37;42.30;;;24.38;;
22284;SDS011;11311;52.192;20.900;2024-01-30T08:15:09;32.13;;;20.85;;
22284;SDS011;11311;52.192;20.900;2024-01-30T08:17:39;34.58;;;21.25;;
22284;SDS011;11311;52.192;20.900;2024-01-30T08:20:08;32.75;;;19.85;;
22284;SDS011;11311;52.192;20.900;2024-01-30T08:22:39;32.92;;;20.65;;
22284;SDS011;11311;52.192;20.900;2024-01-30T08:25:08;36.25;;;20.92;;
22284;SDS011;11311;52.192;20.900;2024-01-30T08:27:38;32.33;;;20.00;;
22284;SDS011;11311;52.192;20.900;2024-01-30T08:30:08;30.58;;;20.02;;
22284;SDS011;11311;52.192;20.900;2024-01-30T08:32:38;24.70;;;14.32;;
22284;SDS011;11311;52.192;20.900;2024-01-30T08:35:07;32.10;;;17.70;;
22284;SDS011;11311;52.192;20.900;2024-01-30T08:37:36;28.85;;;17.27;;
22284;SDS011;11311;52.192;20.900;2024-01-30T08:40:08;26.25;;;17.10;;
22284;SDS011;11311;52.192;20.900;2024-01-30T08:42:37;26.58;;;16.98;;
22284;SDS011;11311;52.192;20.900;2024-01-30T08:45:06;28.33;;;16.08;;
22284;SDS011;11311;52.192;20.900;2024-01-30T08:52:35;29.63;;;17.85;;
22284;SDS011;11311;52.192;20.900;2024-01-30T08:55:04;24.90;;;15.88;;
22284;SDS011;11311;52.192;20.900;2024-01-30T08:57:34;24.13;;;15.90;;
22284;SDS011;11311;52.192;20.900;2024-01-30T09:00:03;32.97;;;15.75;;
22284;SDS011;11311;52.192;20.900;2024-01-30T09:02:34;31.88;;;16.67;;
22284;SDS011;11311;52.192;20.900;2024-01-30T09:05:05;25.30;;;14.90;;
22284;SDS011;11311;52.192;20.900;2024-01-30T09:07:34;29.30;;;17.27;;
22284;SDS011;11311;52.192;20.900;2024-01-30T09:10:03;26.80;;;16.35;;
22284;SDS011;11311;52.192;20.900;2024-01-30T09:12:33;26.30;;;15.93;;
22284;SDS011;11311;52.192;20.900;2024-01-30T09:15:01;21.40;;;13.68;;
22284;SDS011;11311;52.192;20.900;2024-01-30T09:17:31;22.35;;;14.60;;
22284;SDS011;11311;52.192;20.900;2024-01-30T09:20:00;23.20;;;14.70;;
22284;SDS011;11311;52.192;20.900;2024-01-30T09:22:30;23.75;;;15.40;;
22284;SDS011;11311;52.192;20.900;2024-01-30T09:24:59;22.85;;;14.80;;
22284;SDS011;11311;52.192;20.900;2024-01-30T09:27:28;21.27;;;15.63;;
22284;SDS011;11311;52.192;20.900;2024-01-30T09:29:56;22.23;;;14.63;;
22284;SDS011;11311;52.192;20.900;2024-01-30T09:32:25;27.77;;;15.23;;
22284;SDS011;11311;52.192;20.900;2024-01-30T09:34:54;25.92;;;14.57;;
22284;SDS011;11311;52.192;20.900;2024-01-30T09:37:23;25.40;;;15.93;;
22284;SDS011;11311;52.192;20.900;2024-01-30T09:39:55;23.60;;;14.45;;
22284;SDS011;11311;52.192;20.900;2024-01-30T09:42:26;20.42;;;14.82;;
22284;SDS011;11311;52.192;20.900;2024-01-30T09:44:56;21.85;;;14.02;;
22284;SDS011;11311;52.192;20.900;2024-01-30T09:47:26;27.33;;;15.73;;
22284;SDS011;11311;52.192;20.900;2024-01-30T09:49:58;21.33;;;13.82;;
22284;SDS011;11311;52.192;20.900;2024-01-30T09:52:27;26.15;;;15.30;;
22284;SDS011;11311;52.192;20.900;2024-01-30T09:54:57;24.95;;;14.93;;
22284;SDS011;11311;52.192;20.900;2024-01-30T09:57:28;22.60;;;14.52;;
22284;SDS011;11311;52.192;20.900;2024-01-30T09:59:57;20.70;;;14.15;;
22284;SDS011;11311;52.192;20.900;2024-01-30T10:02:26;22.25;;;12.40;;
22284;SDS011;11311;52.192;20.900;2024-01-30T10:04:55;23.50;;;14.15;;
22284;SDS011;11311;52.192;20.900;2024-01-30T10:07:25;19.70;;;14.70;;
22284;SDS011;11311;52.192;20.900;2024-01-30T10:09:54;23.55;;;14.25;;
22284;SDS011;11311;52.192;20.900;2024-01-30T10:12:27;27.80;;;14.90;;
22284;SDS011;11311;52.192;20.900;2024-01-30T10:14:56;25.77;;;13.82;;
22284;SDS011;11311;52.192;20.900;2024-01-30T10:17:26;21.98;;;13.50;;
22284;SDS011;11311;52.192;20.900;2024-01-30T10:20:00;20.02;;;12.50;;
22284;SDS011;11311;52.192;20.900;2024-01-30T10:22:33;22.25;;;14.02;;
22284;SDS011;11311;52.192;20.900;2024-01-30T10:25:02;24.90;;;13.02;;
22284;SDS011;11311;52.192;20.900;2024-01-30T10:27:34;22.90;;;13.07;;
22284;SDS011;11311;52.192;20.900;2024-01-30T10:30:03;21.70;;;14.30;;
22284;SDS011;11311;52.192;20.900;2024-01-30T10:32:33;22.27;;;13.13;;
22284;SDS011;11311;52.192;20.900;2024-01-30T10:35:02;25.08;;;13.40;;
22284;SDS011;11311;52.192;20.900;2024-01-30T10:37:31;23.60;;;13.57;;
22284;SDS011;11311;52.192;20.900;2024-01-30T10:40:02;19.95;;;12.30;;
22284;SDS011;11311;52.192;20.900;2024-01-30T10:42:36;18.83;;;10.95;;
22284;SDS011;11311;52.192;20.900;2024-01-30T10:45:06;21.85;;;13.82;;
22284;SDS011;11311;52.192;20.900;2024-01-30T10:47:36;20.58;;;13.80;;
22284;SDS011;11311;52.192;20.900;2024-01-30T10:50:05;19.98;;;14.55;;
22284;SDS011;11311;52.192;20.900;2024-01-30T10:52:37;26.25;;;12.32;;
22284;SDS011;11311;52.192;20.900;2024-01-30T10:55:06;22.67;;;13.18;;
22284;SDS011;11311;52.192;20.900;2024-01-30T10:57:37;20.40;;;12.95;;
22284;SDS011;11311;52.192;20.900;2024-01-30T11:00:08;22.83;;;13.30;;
22284;SDS011;11311;52.192;20.900;2024-01-30T11:02:40;20.25;;;11.65;;
22284;SDS011;11311;52.192;20.900;2024-01-30T11:05:10;21.02;;;13.23;;
22284;SDS011;11311;52.192;20.900;2024-01-30T11:07:38;20.42;;;13.30;;
22284;SDS011;11311;52.192;20.900;2024-01-30T11:10:08;20.88;;;13.32;;
22284;SDS011;11311;52.192;20.900;2024-01-30T11:12:42;20.88;;;13.70;;
22284;SDS011;11311;52.192;20.900;2024-01-30T11:15:13;20.95;;;11.95;;
22284;SDS011;11311;52.192;20.900;2024-01-30T11:17:44;16.40;;;11.73;;
22284;SDS011;11311;52.192;20.900;2024-01-30T11:22:42;21.48;;;12.00;;
22284;SDS011;11311;52.192;20.900;2024-01-30T11:25:13;17.15;;;12.50;;
22284;SDS011;11311;52.192;20.900;2024-01-30T11:27:44;17.65;;;13.05;;
22284;SDS011;11311;52.192;20.900;2024-01-30T11:30:20;23.10;;;13.80;;
22284;SDS011;11311;52.192;20.900;2024-01-30T11:33:00;19.20;;;12.88;;
22284;SDS011;11311;52.192;20.900;2024-01-30T11:35:33;20.17;;;12.45;;
22284;SDS011;11311;52.192;20.900;2024-01-30T11:38:03;20.75;;;13.52;;
22284;SDS011;11311;52.192;20.900;2024-01-30T11:40:32;21.48;;;12.70;;
22284;SDS011;11311;52.192;20.900;2024-01-30T11:43:04;22.50;;;12.63;;
22284;SDS011;11311;52.192;20.900;2024-01-30T11:45:34;17.98;;;11.90;;
22284;SDS011;11311;52.192;20.900;2024-01-30T11:48:04;19.33;;;10.88;;
22284;SDS011;11311;52.192;20.900;2024-01-30T11:50:35;22.48;;;13.07;;
22284;SDS011;11311;52.192;20.900;2024-01-30T11:53:05;19.50;;;13.15;;
22284;SDS011;11311;52.192;20.900;2024-01-30T11:55:34;24.25;;;13.60;;
22284;SDS011;11311;52.192;20.900;2024-01-30T11:58:06;24.83;;;14.82;;
22284;SDS011;11311;52.192;20.900;2024-01-30T12:00:38;20.95;;;13.60;;
22284;SDS011;11311;52.192;20.900;2024-01-30T12:03:07;25.80;;;15.30;;
22284;SDS011;11311;52.192;20.900;2024-01-30T12:05:37;32.80;;;16.45;;
22284;SDS011;11311;52.192;20.900;2024-01-30T12:08:14;21.80;;;14.88;;
22284;SDS011;11311;52.192;20.900;2024-01-30T12:10:43;18.05;;;12.13;;
22284;SDS011;11311;52.192;20.900;2024-01-30T12:13:14;20.30;;;13.52;;
22284;SDS011;11311;52.192;20.900;2024-01-30T12:15:43;19.02;;;13.98;;
22284;SDS011;11311;52.192;20.900;2024-01-30T12:18:12;24.27;;;14.32;;
22284;SDS011;11311;52.192;20.900;2024-01-30T12:20:41;21.38;;;14.15;;
22284;SDS011;11311;52.192;20.900;2024-01-30T12:23:11;24.10;;;14.48;;
22284;SDS011;11311;52.192;20.900;2024-01-30T12:25:40;24.25;;;14.43;;
22284;SDS011;11311;52.192;20.900;2024-01-30T12:28:09;22.10;;;14.97;;
22284;SDS011;11311;52.192;20.900;2024-01-30T12:30:40;26.67;;;14.88;;
22284;SDS011;11311;52.192;20.900;2024-01-30T12:33:15;20.27;;;11.93;;
22284;SDS011;11311;52.192;20.900;2024-01-30T12:35:47;22.88;;;14.90;;
22284;SDS011;11311;52.192;20.900;2024-01-30T12:38:29;23.27;;;14.50;;
22284;SDS011;11311;52.192;20.900;2024-01-30T12:40:58;23.13;;;13.88;;
22284;SDS011;11311;52.192;20.900;2024-01-30T12:43:27;21.15;;;13.02;;
22284;SDS011;11311;52.192;20.900;2024-01-30T12:46:06;24.38;;;15.13;;
22284;SDS011;11311;52.192;20.900;2024-01-30T12:48:35;21.40;;;15.45;;
22284;SDS011;11311;52.192;20.900;2024-01-30T12:51:04;23.00;;;13.85;;
22284;SDS011;11311;52.192;20.900;2024-01-30T12:53:34;17.65;;;12.90;;
22284;SDS011;11311;52.192;20.900;2024-01-30T12:58:32;18.00;;;12.77;;
22284;SDS011;11311;52.192;20.900;2024-01-30T13:01:01;18.83;;;13.82;;
22284;SDS011;11311;52.192;20.900;2024-01-30T13:03:31;20.10;;;13.95;;
22284;SDS011;11311;52.192;20.900;2024-01-30T13:06:01;26.08;;;13.60;;
22284;SDS011;11311;52.192;20.900;2024-01-30T13:08:31;28.92;;;14.45;;
22284;SDS011;11311;52.192;20.900;2024-01-30T13:10:59;21.02;;;14.45;;
22284;SDS011;11311;52.192;20.900;2024-01-30T13:13:28;22.70;;;12.38;;
22284;SDS011;11311;52.192;20.900;2024-01-30T13:15:57;25.95;;;15.15;;
22284;SDS011;11311;52.192;20.900;2024-01-30T13:18:26;29.35;;;14.43;;
22284;SDS011;11311;52.192;20.900;2024-01-30T13:20:56;21.30;;;15.10;;
22284;SDS011;11311;52.192;20.900;2024-01-30T13:25:54;23.60;;;15.13;;
22284;SDS011;11311;52.192;20.900;2024-01-30T13:28:25;26.25;;;14.48;;
22284;SDS011;11311;52.192;20.900;2024-01-30T13:30:54;22.67;;;14.30;;
22284;SDS011;11311;52.192;20.900;2024-01-30T13:33:23;25.45;;;14.05;;
22284;SDS011;11311;52.192;20.900;2024-01-30T13:35:52;24.52;;;13.70;;
22284;SDS011;11311;52.192;20.900;2024-01-30T13:38:22;22.70;;;14.30;;
22284;SDS011;11311;52.192;20.900;2024-01-30T13:40:51;26.58;;;13.75;;
22284;SDS011;11311;52.192;20.900;2024-01-30T13:43:20;24.27;;;14.05;;
22284;SDS011;11311;52.192;20.900;2024-01-30T13:45:49;27.75;;;13.48;;
22284;SDS011;11311;52.192;20.900;2024-01-30T13:48:18;30.35;;;15.25;;
22284;SDS011;11311;52.192;20.900;2024-01-30T13:50:47;25.48;;;13.95;;
22284;SDS011;11311;52.192;20.900;2024-01-30T13:53:17;24.70;;;16.17;;
22284;SDS011;11311;52.192;20.900;2024-01-30T13:55:47;22.63;;;13.82;;
22284;SDS011;11311;52.192;20.900;2024-01-30T13:58:16;24.20;;;14.77;;
22284;SDS011;11311;52.192;20.900;2024-01-30T14:00:45;27.25;;;14.88;;
22284;SDS011;11311;52.192;20.900;2024-01-30T14:03:14;20.58;;;13.90;;
22284;SDS011;11311;52.192;20.900;2024-01-30T14:05:43;24.42;;;15.30;;
22284;SDS011;11311;52.192;20.900;2024-01-30T14:08:12;23.75;;;15.48;;
22284;SDS011;11311;52.192;20.900;2024-01-30T14:10:41;25.52;;;14.50;;
22284;SDS011;11311;52.192;20.900;2024-01-30T14:13:11;29.38;;;17.30;;
22284;SDS011;11311;52.192;20.900;2024-01-30T14:15:40;26.05;;;13.38;;
22284;SDS011;11311;52.192;20.900;2024-01-30T14:18:10;24.70;;;15.38;;
22284;SDS011;11311;52.192;20.900;2024-01-30T14:20:42;26.40;;;13.00;;
22284;SDS011;11311;52.192;20.900;2024-01-30T14:23:13;22.13;;;14.68;;
22284;SDS011;11311;52.192;20.900;2024-01-30T14:25:41;23.90;;;13.82;;
22284;SDS011;11311;52.192;20.900;2024-01-30T14:28:12;21.77;;;14.25;;
22284;SDS011;11311;52.192;20.900;2024-01-30T14:30:41;23.10;;;12.98;;
22284;SDS011;11311;52.192;20.900;2024-01-30T14:33:10;21.33;;;13.73;;
22284;SDS011;11311;52.192;20.900;2024-01-30T14:35:40;22.38;;;14.40;;
22284;SDS011;11311;52.192;20.900;2024-01-30T14:38:09;22.80;;;14.02;;
22284;SDS011;11311;52.192;20.900;2024-01-30T14:40:38;22.88;;;12.85;;
22284;SDS011;11311;52.192;20.900;2024-01-30T14:43:07;27.23;;;14.83;;
22284;SDS011;11311;52.192;20.900;2024-01-30T14:45:38;23.30;;;14.45;;
22284;SDS011;11311;52.192;20.900;2024-01-30T14:50:36;30.90;;;14.48;;
22284;SDS011;11311;52.192;20.900;2024-01-30T14:53:05;28.40;;;16.67;;